createdAt,value
2017-12-01T00:00:46.776Z,7.43
2017-12-01T00:03:14.436Z,6.35
2017-12-01T00:05:42.056Z,6.97
2017-12-01T00:08:10.434Z,7.40
2017-12-01T00:10:38.922Z,6.95
2017-12-01T00:13:06.521Z,7.03
2017-12-01T00:15:34.177Z,6.33
2017-12-01T00:18:02.211Z,6.12
2017-12-01T00:20:29.843Z,6.93
2017-12-01T00:22:57.477Z,6.85
2017-12-01T00:25:25.131Z,6.62
2017-12-01T00:27:53.573Z,6.78
2017-12-01T00:30:21.178Z,6.90
2017-12-01T00:32:49.604Z,6.87
2017-12-01T00:35:17.210Z,7.57
2017-12-01T00:37:44.843Z,6.87
2017-12-01T00:40:12.457Z,7.32
2017-12-01T00:42:40.398Z,7.82
2017-12-01T00:45:08.030Z,7.75
2017-12-01T00:47:35.648Z,6.90
2017-12-01T00:50:03.314Z,7.40
2017-12-01T00:52:30.946Z,6.95
2017-12-01T00:54:58.583Z,7.12
2017-12-01T00:57:26.283Z,6.97
2017-12-01T00:59:53.870Z,7.35
2017-12-01T01:02:21.657Z,7.25
2017-12-01T01:04:49.285Z,6.70
2017-12-01T01:07:16.889Z,6.70
2017-12-01T01:09:44.641Z,7.22
2017-12-01T01:12:12.257Z,7.05
2017-12-01T01:14:39.898Z,7.20
2017-12-01T01:17:08.310Z,7.40
2017-12-01T01:19:35.907Z,6.87
2017-12-01T01:22:03.598Z,7.20
2017-12-01T01:24:32.117Z,7.57
2017-12-01T01:27:00.495Z,7.68
2017-12-01T01:29:28.912Z,7.37
2017-12-01T01:31:56.535Z,7.57
2017-12-01T01:34:24.946Z,6.97
2017-12-01T01:36:52.596Z,7.90
2017-12-01T01:39:20.976Z,7.32
2017-12-01T01:41:49.402Z,7.50
2017-12-01T01:44:17.028Z,7.47
2017-12-01T01:46:44.691Z,7.43
2017-12-01T01:49:12.338Z,6.95
2017-12-01T01:51:39.990Z,7.53
2017-12-01T01:54:07.603Z,7.07
2017-12-01T01:56:36.008Z,7.53
2017-12-01T01:59:03.648Z,7.80
2017-12-01T02:01:31.282Z,7.45
2017-12-01T02:03:58.929Z,7.15
2017-12-01T02:06:26.627Z,7.03
2017-12-01T02:08:54.256Z,6.73
2017-12-01T02:11:21.907Z,7.45
2017-12-01T02:13:49.557Z,7.87
2017-12-01T02:16:17.180Z,7.22
2017-12-01T02:18:44.824Z,7.57
2017-12-01T02:21:12.465Z,6.87
2017-12-01T02:23:40.090Z,7.43
2017-12-01T02:26:08.502Z,7.43
2017-12-01T02:28:36.139Z,7.20
2017-12-01T02:31:03.816Z,6.87
2017-12-01T02:33:32.342Z,7.30
2017-12-01T02:35:59.982Z,7.70
2017-12-01T02:38:28.401Z,7.22
2017-12-01T02:40:56.048Z,7.32
2017-12-01T02:43:23.693Z,7.30
2017-12-01T02:45:52.060Z,7.65
2017-12-01T02:48:19.715Z,7.83
2017-12-01T02:50:47.346Z,8.07
2017-12-01T02:53:14.964Z,7.72
2017-12-01T02:55:45.361Z,8.93
2017-12-01T02:58:12.982Z,8.20
2017-12-01T03:00:40.610Z,8.07
2017-12-01T03:03:08.237Z,8.30
2017-12-01T03:05:35.873Z,8.30
2017-12-01T03:08:03.494Z,8.70
2017-12-01T03:10:31.152Z,8.90
2017-12-01T03:12:58.814Z,8.48
2017-12-01T03:15:26.421Z,8.77
2017-12-01T03:17:54.821Z,8.57
2017-12-01T03:20:22.416Z,8.55
2017-12-01T03:22:50.288Z,8.52
2017-12-01T03:25:17.909Z,9.55
2017-12-01T03:27:46.329Z,8.60
2017-12-01T03:30:13.986Z,9.17
2017-12-01T03:32:41.579Z,9.20
2017-12-01T03:35:09.180Z,9.50
2017-12-01T03:37:36.830Z,8.38
2017-12-01T03:40:04.450Z,10.05
2017-12-01T03:42:32.109Z,9.25
2017-12-01T03:44:59.753Z,9.73
2017-12-01T03:47:28.177Z,9.77
2017-12-01T03:49:55.789Z,9.48
2017-12-01T03:52:23.420Z,8.77
2017-12-01T03:54:51.131Z,10.30
2017-12-01T03:57:18.803Z,9.27
2017-12-01T03:59:46.460Z,9.68
2017-12-01T04:02:14.397Z,10.53
2017-12-01T04:04:42.002Z,9.63
2017-12-01T04:07:09.614Z,9.57
2017-12-01T04:09:37.250Z,9.57
2017-12-01T04:12:05.658Z,9.35
2017-12-01T04:14:33.289Z,9.18
2017-12-01T04:17:01.697Z,9.07
2017-12-01T04:19:30.107Z,9.20
2017-12-01T04:21:57.720Z,9.25
2017-12-01T04:24:25.346Z,9.57
2017-12-01T04:26:53.010Z,10.18
2017-12-01T04:29:20.623Z,9.48
2017-12-01T04:31:48.309Z,9.02
2017-12-01T04:34:16.714Z,9.50
2017-12-01T04:36:44.339Z,9.80
2017-12-01T04:39:12.758Z,9.27
2017-12-01T04:41:40.368Z,9.32
2017-12-01T04:44:08.010Z,9.10
2017-12-01T04:46:35.626Z,10.30
2017-12-01T04:49:03.251Z,10.07
2017-12-01T04:51:30.903Z,9.88
2017-12-01T04:53:58.508Z,9.73
2017-12-01T04:56:26.147Z,9.57
2017-12-01T04:58:53.787Z,10.30
2017-12-01T05:01:21.430Z,10.13
2017-12-01T05:03:51.262Z,9.90
2017-12-01T05:06:20.242Z,10.52
2017-12-01T05:08:47.888Z,10.00
2017-12-01T05:11:15.528Z,10.50
2017-12-01T05:13:43.324Z,10.63
2017-12-01T05:16:10.976Z,10.25
2017-12-01T05:18:38.606Z,10.02
2017-12-01T05:21:06.273Z,10.77
2017-12-01T05:23:33.931Z,11.27
2017-12-01T05:26:01.560Z,10.77
2017-12-01T05:28:29.225Z,10.68
2017-12-01T05:30:56.838Z,10.50
2017-12-01T05:33:24.479Z,9.25
2017-12-01T05:35:52.863Z,9.82
2017-12-01T05:38:21.256Z,10.40
2017-12-01T05:40:48.935Z,9.95
2017-12-01T05:43:16.555Z,10.38
2017-12-01T05:45:44.428Z,10.30
2017-12-01T05:48:12.040Z,10.45
2017-12-01T05:50:39.659Z,10.00
2017-12-01T05:53:08.081Z,10.25
2017-12-01T05:55:35.686Z,10.70
2017-12-01T05:58:03.413Z,10.30
2017-12-01T06:00:31.785Z,9.25
2017-12-01T06:03:00.159Z,9.25
2017-12-01T06:05:27.844Z,9.77
2017-12-01T06:07:56.211Z,9.05
2017-12-01T06:10:24.646Z,10.02
2017-12-01T06:12:52.245Z,9.25
2017-12-01T06:15:19.885Z,9.48
2017-12-01T06:17:47.543Z,9.15
2017-12-01T06:20:15.142Z,9.00
2017-12-01T06:22:42.801Z,9.65
2017-12-01T06:25:10.424Z,9.25
2017-12-01T06:27:38.078Z,9.70
2017-12-01T06:30:06.490Z,9.90
2017-12-01T06:32:34.216Z,8.80
2017-12-01T06:35:02.643Z,9.25
2017-12-01T06:37:30.268Z,9.25
2017-12-01T06:39:58.807Z,9.67
2017-12-01T06:42:26.430Z,9.20
2017-12-01T06:44:54.791Z,9.52
2017-12-01T06:47:22.513Z,9.52
2017-12-01T06:49:50.178Z,8.85
2017-12-01T06:52:17.806Z,9.90
2017-12-01T06:54:46.218Z,9.93
2017-12-01T06:57:13.840Z,9.57
2017-12-01T06:59:41.499Z,10.32
2017-12-01T07:02:09.138Z,9.70
2017-12-01T07:04:36.933Z,10.02
2017-12-01T07:07:04.564Z,8.85
2017-12-01T07:09:32.157Z,9.53
2017-12-01T07:11:59.798Z,10.15
2017-12-01T07:14:27.485Z,9.23
2017-12-01T07:16:55.127Z,9.38
2017-12-01T07:19:22.764Z,9.23
2017-12-01T07:21:51.159Z,10.13
2017-12-01T07:24:18.806Z,9.90
2017-12-01T07:26:59.089Z,10.20
2017-12-01T07:29:26.705Z,9.90
2017-12-01T07:31:54.416Z,9.50
2017-12-01T07:34:22.024Z,9.27
2017-12-01T07:36:50.622Z,9.25
2017-12-01T07:39:18.284Z,9.65
2017-12-01T07:41:45.905Z,8.88
2017-12-01T07:44:20.094Z,9.77
2017-12-01T07:46:48.445Z,9.20
2017-12-01T07:49:16.871Z,8.80
2017-12-01T07:51:44.486Z,9.68
2017-12-01T07:54:12.148Z,9.38
2017-12-01T07:56:39.753Z,8.68
2017-12-01T07:59:08.722Z,9.55
2017-12-01T08:01:36.379Z,8.95
2017-12-01T08:04:04.040Z,9.57
2017-12-01T08:06:31.659Z,8.90
2017-12-01T08:08:59.319Z,8.68
2017-12-01T08:11:27.684Z,9.82
2017-12-01T08:13:55.302Z,8.98
2017-12-01T08:16:34.663Z,9.30
2017-12-01T08:19:03.235Z,9.70
2017-12-01T08:21:42.929Z,9.03
2017-12-01T08:24:25.103Z,9.85
2017-12-01T08:26:52.782Z,9.73
2017-12-01T08:29:20.395Z,10.32
2017-12-01T08:31:48.036Z,10.33
2017-12-01T08:34:16.426Z,9.30
2017-12-01T08:36:44.845Z,9.32
2017-12-01T08:39:12.441Z,9.30
2017-12-01T08:41:40.474Z,8.90
2017-12-01T08:44:08.820Z,9.55
2017-12-01T08:46:37.198Z,10.02
2017-12-01T08:49:04.880Z,10.38
2017-12-01T08:51:32.542Z,10.43
2017-12-01T08:54:00.905Z,10.07
2017-12-01T08:56:28.535Z,9.63
2017-12-01T08:58:56.185Z,10.30
2017-12-01T09:01:23.821Z,10.10
2017-12-01T09:03:52.198Z,10.33
2017-12-01T09:06:20.647Z,9.68
2017-12-01T09:08:48.282Z,10.20
2017-12-01T09:11:15.972Z,10.75
2017-12-01T09:13:43.607Z,10.87
2017-12-01T09:16:11.233Z,9.95
2017-12-01T09:18:38.849Z,10.25
2017-12-01T09:21:06.479Z,11.00
2017-12-01T09:23:34.893Z,10.43
2017-12-01T09:26:02.526Z,11.15
2017-12-01T09:28:30.185Z,9.98
2017-12-01T09:30:57.766Z,11.02
2017-12-01T09:33:26.477Z,10.50
2017-12-01T09:35:54.121Z,10.93
2017-12-01T09:38:21.738Z,10.88
2017-12-01T09:40:49.386Z,10.85
2017-12-01T09:43:16.975Z,10.73
2017-12-01T09:45:44.632Z,10.55
2017-12-01T09:48:12.227Z,11.18
2017-12-01T09:50:39.874Z,10.50
2017-12-01T09:53:07.478Z,9.87
2017-12-01T09:55:35.130Z,10.52
2017-12-01T09:58:03.506Z,9.68
2017-12-01T10:00:31.171Z,10.93
2017-12-01T10:02:58.782Z,10.40
2017-12-01T10:05:27.206Z,9.60
2017-12-01T10:07:54.862Z,10.32
2017-12-01T10:10:22.454Z,10.20
2017-12-01T10:12:52.652Z,9.50
2017-12-01T10:15:21.087Z,9.50
2017-12-01T10:17:49.792Z,9.15
2017-12-01T10:20:18.183Z,8.90
2017-12-01T10:22:45.785Z,9.57
2017-12-01T10:25:13.439Z,8.70
2017-12-01T10:27:41.048Z,8.73
2017-12-01T10:30:08.685Z,9.95
2017-12-01T10:32:36.307Z,8.48
2017-12-01T10:35:03.977Z,9.40
2017-12-01T10:37:32.342Z,8.77
2017-12-01T10:40:01.052Z,8.25
2017-12-01T10:42:29.415Z,8.52
2017-12-01T10:44:57.029Z,9.60
2017-12-01T10:47:24.711Z,8.98
2017-12-01T10:49:52.294Z,8.15
2017-12-01T10:52:19.950Z,9.10
2017-12-01T10:54:47.562Z,8.68
2017-12-01T10:57:15.934Z,9.15
2017-12-01T10:59:44.326Z,8.85
2017-12-01T11:02:13.220Z,8.68
2017-12-01T11:04:40.976Z,9.03
2017-12-01T11:07:08.581Z,8.35
2017-12-01T11:09:36.206Z,8.23
2017-12-01T11:12:03.853Z,8.25
2017-12-01T11:14:31.454Z,8.13
2017-12-01T11:17:00.682Z,9.10
2017-12-01T11:19:28.301Z,8.63
2017-12-01T11:21:55.948Z,8.00
2017-12-01T11:24:23.547Z,8.88
2017-12-01T11:26:51.925Z,8.77
2017-12-01T11:29:20.373Z,8.10
2017-12-01T11:31:48.034Z,8.23
2017-12-01T11:34:15.701Z,8.55
2017-12-01T11:36:43.320Z,8.20
2017-12-01T11:39:11.971Z,8.48
2017-12-01T11:41:39.601Z,8.07
2017-12-01T11:44:07.244Z,8.20
2017-12-01T11:46:35.637Z,7.93
2017-12-01T11:49:04.036Z,8.30
2017-12-01T11:51:31.667Z,8.10
2017-12-01T11:54:00.041Z,8.23
2017-12-01T11:56:27.704Z,8.45
2017-12-01T11:58:55.365Z,8.00
2017-12-01T12:01:23.008Z,8.32
2017-12-01T12:03:50.930Z,7.62
2017-12-01T12:06:18.575Z,8.63
2017-12-01T12:08:46.216Z,8.60
2017-12-01T12:11:13.880Z,8.17
2017-12-01T12:13:41.566Z,8.65
2017-12-01T12:16:09.503Z,8.20
2017-12-01T12:18:37.099Z,8.82
2017-12-01T12:21:04.736Z,8.77
2017-12-01T12:23:32.417Z,8.07
2017-12-01T12:26:00.441Z,8.57
2017-12-01T12:28:28.868Z,8.10
2017-12-01T12:30:56.470Z,8.48
2017-12-01T12:33:24.198Z,8.27
2017-12-01T12:35:51.840Z,7.82
2017-12-01T12:38:22.688Z,8.23
2017-12-01T12:40:50.463Z,8.53
2017-12-01T12:43:18.107Z,8.73
2017-12-01T12:45:46.573Z,7.78
2017-12-01T12:48:14.905Z,8.27
2017-12-01T12:50:42.552Z,7.20
2017-12-01T12:53:10.207Z,7.32
2017-12-01T12:55:39.496Z,7.25
2017-12-01T12:58:07.148Z,6.97
2017-12-01T13:00:34.766Z,7.20
2017-12-01T13:03:02.407Z,7.28
2017-12-01T13:05:30.769Z,7.37
2017-12-01T13:07:59.241Z,6.43
2017-12-01T13:10:26.907Z,6.47
2017-12-01T13:12:54.579Z,6.43
2017-12-01T13:15:23.141Z,6.35
2017-12-01T13:17:50.725Z,6.25
2017-12-01T13:20:19.186Z,6.45
2017-12-01T13:22:46.837Z,6.55
2017-12-01T13:25:14.442Z,6.72
2017-12-01T13:27:42.079Z,6.45
2017-12-01T13:30:09.732Z,6.43
2017-12-01T13:32:37.502Z,7.27
2017-12-01T13:35:05.142Z,6.78
2017-12-01T13:37:33.488Z,6.35
2017-12-01T13:40:01.127Z,6.30
2017-12-01T13:42:29.080Z,5.97
2017-12-01T13:44:56.720Z,6.37
2017-12-01T13:47:24.344Z,6.47
2017-12-01T13:49:52.880Z,5.85
2017-12-01T13:52:21.252Z,6.55
2017-12-01T13:54:48.904Z,5.95
2017-12-01T13:57:16.536Z,6.28
2017-12-01T13:59:44.187Z,6.15
2017-12-01T14:02:11.770Z,6.50
2017-12-01T14:04:39.508Z,5.95
2017-12-01T14:07:07.886Z,6.15
2017-12-01T14:09:36.547Z,6.20
2017-12-01T14:12:04.285Z,6.60
2017-12-01T14:14:31.993Z,5.85
2017-12-01T14:16:59.580Z,6.65
2017-12-01T14:19:28.017Z,6.45
2017-12-01T14:21:55.677Z,5.65
2017-12-01T14:24:23.379Z,6.43
2017-12-01T14:26:50.968Z,6.43
2017-12-01T14:29:18.644Z,5.87
2017-12-01T14:31:46.571Z,6.70
2017-12-01T14:34:14.152Z,6.50
2017-12-01T14:36:41.819Z,6.90
2017-12-01T14:39:09.429Z,6.55
2017-12-01T14:41:37.092Z,6.20
2017-12-01T14:44:04.683Z,6.72
2017-12-01T14:46:32.318Z,6.10
2017-12-01T14:48:59.926Z,6.87
2017-12-01T14:51:28.152Z,6.50
2017-12-01T14:53:55.765Z,7.60
2017-12-01T14:56:23.398Z,6.35
2017-12-01T14:58:51.880Z,6.55
2017-12-01T15:01:19.517Z,7.28
2017-12-01T15:03:47.167Z,6.57
2017-12-01T15:06:15.584Z,6.62
2017-12-01T15:08:43.211Z,7.30
2017-12-01T15:11:10.868Z,6.50
2017-12-01T15:13:38.459Z,6.72
2017-12-01T15:16:06.840Z,6.70
2017-12-01T15:18:35.264Z,6.72
2017-12-01T15:21:02.880Z,6.43
2017-12-01T15:23:31.314Z,6.10
2017-12-01T15:25:58.947Z,6.93
2017-12-01T15:28:26.644Z,6.53
2017-12-01T15:30:54.244Z,6.22
2017-12-01T15:33:21.877Z,6.80
2017-12-01T15:35:49.590Z,6.22
2017-12-01T15:38:17.174Z,6.60
2017-12-01T15:40:47.163Z,6.53
2017-12-01T15:43:14.844Z,6.30
2017-12-01T15:45:43.285Z,6.35
2017-12-01T15:48:10.870Z,6.37
2017-12-01T15:50:38.619Z,6.12
2017-12-01T15:53:06.289Z,5.97
2017-12-01T15:55:33.882Z,6.00
2017-12-01T15:58:01.526Z,6.30
2017-12-01T16:00:29.149Z,6.43
2017-12-01T16:02:57.553Z,6.55
2017-12-01T16:05:25.194Z,6.03
2017-12-01T16:07:53.573Z,6.72
2017-12-01T16:10:21.978Z,6.40
2017-12-01T16:12:49.584Z,6.43
2017-12-01T16:15:17.472Z,6.12
2017-12-01T16:17:45.138Z,6.25
2017-12-01T16:20:12.802Z,6.78
2017-12-01T16:22:40.405Z,6.10
2017-12-01T16:25:08.071Z,6.32
2017-12-01T16:27:35.678Z,6.32
2017-12-01T16:30:03.290Z,6.37
2017-12-01T16:32:31.692Z,6.00
2017-12-01T16:34:59.411Z,5.80
2017-12-01T16:37:27.046Z,6.05
2017-12-01T16:39:54.673Z,6.45
2017-12-01T16:42:23.061Z,6.47
2017-12-01T16:44:51.462Z,6.73
2017-12-01T16:47:19.093Z,6.65
2017-12-01T16:49:46.759Z,6.10
2017-12-01T16:52:15.102Z,6.53
2017-12-01T16:54:42.751Z,6.03
2017-12-01T16:57:10.410Z,6.22
2017-12-01T16:59:38.485Z,5.85
2017-12-01T17:02:06.115Z,6.65
2017-12-01T17:04:33.736Z,6.15
2017-12-01T17:07:01.391Z,6.20
2017-12-01T17:09:29.033Z,6.00
2017-12-01T17:11:57.442Z,6.57
2017-12-01T17:14:25.147Z,6.15
2017-12-01T17:16:52.829Z,6.43
2017-12-01T17:19:21.235Z,6.03
2017-12-01T17:21:49.975Z,6.30
2017-12-01T17:24:17.581Z,6.32
2017-12-01T17:26:45.214Z,6.65
2017-12-01T17:29:12.877Z,6.07
2017-12-01T17:31:40.504Z,6.03
2017-12-01T17:34:08.896Z,6.18
2017-12-01T17:36:36.585Z,5.93
2017-12-01T17:39:04.237Z,6.15
2017-12-01T17:41:31.899Z,6.87
2017-12-01T17:43:59.514Z,6.00
2017-12-01T17:46:28.001Z,5.85
2017-12-01T17:48:55.724Z,5.40
2017-12-01T17:51:23.390Z,5.82
2017-12-01T17:53:51.848Z,5.70
2017-12-01T17:56:19.628Z,6.15
2017-12-01T17:58:47.285Z,5.95
2017-12-01T18:01:16.724Z,5.32
2017-12-01T18:03:44.335Z,5.83
2017-12-01T18:06:12.822Z,5.57
2017-12-01T18:08:40.429Z,4.90
2017-12-01T18:11:08.144Z,4.70
2017-12-01T18:13:35.785Z,5.28
2017-12-01T18:16:03.779Z,5.20
2017-12-01T18:18:31.407Z,5.47
2017-12-01T18:20:59.001Z,5.55
2017-12-01T18:23:26.656Z,5.25
2017-12-01T18:25:54.271Z,5.90
2017-12-01T18:28:21.951Z,5.35
2017-12-01T18:30:50.332Z,5.95
2017-12-01T18:33:18.736Z,5.07
2017-12-01T18:35:46.373Z,5.40
2017-12-01T18:38:14.772Z,5.57
2017-12-01T18:40:43.153Z,6.37
2017-12-01T18:43:11.533Z,5.97
2017-12-01T18:45:39.937Z,6.07
2017-12-01T18:48:07.576Z,5.28
2017-12-01T18:50:36.029Z,5.37
2017-12-01T18:53:03.614Z,5.75
2017-12-01T18:55:31.243Z,5.57
2017-12-01T18:57:58.841Z,5.43
2017-12-01T19:00:27.258Z,5.28
2017-12-01T19:02:55.719Z,5.28
2017-12-01T19:05:23.331Z,5.72
2017-12-01T19:07:51.009Z,5.03
2017-12-01T19:10:18.679Z,5.37
2017-12-01T19:12:46.347Z,5.22
2017-12-01T19:15:13.971Z,5.90
2017-12-01T19:17:42.378Z,5.65
2017-12-01T19:20:09.994Z,5.70
2017-12-01T19:22:37.651Z,5.20
2017-12-01T19:25:05.282Z,5.47
2017-12-01T19:27:32.936Z,6.65
2017-12-01T19:30:00.603Z,5.60
2017-12-01T19:32:28.233Z,6.15
2017-12-01T19:34:55.861Z,5.62
2017-12-01T19:37:23.467Z,5.55
2017-12-01T19:39:51.983Z,5.95
2017-12-01T19:42:19.595Z,6.32
2017-12-01T19:44:47.246Z,6.67
2017-12-01T19:47:14.915Z,6.65
2017-12-01T19:49:42.565Z,6.25
2017-12-01T19:52:10.160Z,6.60
2017-12-01T19:54:37.805Z,5.62
2017-12-01T19:57:05.467Z,5.80
2017-12-01T19:59:33.108Z,6.50
2017-12-01T20:02:00.916Z,6.35
2017-12-01T20:04:28.565Z,6.65
2017-12-01T20:06:56.213Z,6.00
2017-12-01T20:09:23.948Z,6.20
2017-12-01T20:11:51.551Z,6.27
2017-12-01T20:14:19.200Z,6.47
2017-12-01T20:16:46.785Z,5.97
2017-12-01T20:19:15.559Z,7.05
2017-12-01T20:21:43.936Z,6.82
2017-12-01T20:24:11.877Z,6.43
2017-12-01T20:26:39.593Z,6.73
2017-12-01T20:29:07.230Z,6.53
2017-12-01T20:31:36.469Z,6.53
2017-12-01T20:34:04.123Z,7.23
2017-12-01T20:36:31.833Z,7.28
2017-12-01T20:38:59.703Z,6.62
2017-12-01T20:41:27.458Z,6.50
2017-12-01T20:43:55.843Z,6.55
2017-12-01T20:46:24.243Z,6.75
2017-12-01T20:48:51.861Z,6.85
2017-12-01T20:51:19.476Z,6.85
2017-12-01T20:53:47.122Z,6.60
2017-12-01T20:56:15.510Z,6.60
2017-12-01T20:58:43.968Z,6.90
2017-12-01T21:01:11.615Z,7.32
2017-12-01T21:03:39.283Z,6.63
2017-12-01T21:06:06.942Z,6.78
2017-12-01T21:08:34.584Z,6.47
2017-12-01T21:11:02.169Z,6.50
2017-12-01T21:13:29.942Z,6.43
2017-12-01T21:15:57.609Z,6.47
2017-12-01T21:18:25.207Z,6.60
2017-12-01T21:20:52.874Z,5.65
2017-12-01T21:23:20.473Z,6.60
2017-12-01T21:25:48.166Z,5.93
2017-12-01T21:28:15.811Z,6.07
2017-12-01T21:30:43.518Z,6.73
2017-12-01T21:33:11.168Z,6.28
2017-12-01T21:35:38.816Z,6.45
2017-12-01T21:38:06.479Z,6.85
2017-12-01T21:40:34.163Z,6.40
2017-12-01T21:43:01.793Z,7.07
2017-12-01T21:45:29.459Z,7.20
2017-12-01T21:47:57.220Z,6.10
2017-12-01T21:50:25.600Z,6.37
2017-12-01T21:52:53.270Z,6.57
2017-12-01T21:55:21.705Z,6.60
2017-12-01T21:57:49.353Z,7.05
2017-12-01T22:00:16.958Z,6.60
2017-12-01T22:02:44.620Z,5.55
2017-12-01T22:05:12.469Z,6.47
2017-12-01T22:07:40.071Z,6.70
2017-12-01T22:10:07.691Z,6.70
2017-12-01T22:12:35.338Z,6.05
2017-12-01T22:15:03.705Z,7.18
2017-12-01T22:17:31.366Z,6.87
2017-12-01T22:19:58.994Z,6.80
2017-12-01T22:22:26.663Z,6.68
2017-12-01T22:24:54.303Z,7.03
2017-12-01T22:27:21.941Z,6.70
2017-12-01T22:29:50.411Z,7.07
2017-12-01T22:32:18.070Z,6.20
2017-12-01T22:34:45.688Z,7.05
2017-12-01T22:37:13.370Z,6.70
2017-12-01T22:39:41.165Z,6.68
2017-12-01T22:42:08.821Z,7.05
2017-12-01T22:44:36.463Z,7.22
2017-12-01T22:47:04.123Z,6.90
2017-12-01T22:49:31.709Z,6.87
2017-12-01T22:51:59.347Z,6.63
2017-12-01T22:54:27.003Z,7.72
2017-12-01T22:56:55.406Z,7.75
2017-12-01T22:59:23.103Z,6.20
2017-12-01T23:01:50.686Z,6.78
2017-12-01T23:04:18.290Z,6.90
2017-12-01T23:06:46.690Z,7.20
2017-12-01T23:09:15.104Z,6.30
2017-12-01T23:11:42.715Z,6.62
2017-12-01T23:14:11.142Z,6.78
2017-12-01T23:16:38.767Z,6.32
2017-12-01T23:19:07.144Z,6.55
2017-12-01T23:21:35.357Z,7.12
2017-12-01T23:24:02.976Z,6.18
2017-12-01T23:26:31.445Z,6.45
2017-12-01T23:28:59.083Z,6.70
2017-12-01T23:31:26.747Z,6.47
2017-12-01T23:33:54.347Z,6.30
2017-12-01T23:36:22.130Z,6.03
2017-12-01T23:38:50.508Z,6.28
2017-12-01T23:41:18.129Z,6.28
2017-12-01T23:43:45.793Z,6.57
2017-12-01T23:46:13.452Z,6.00
2017-12-01T23:48:41.117Z,6.50
2017-12-01T23:51:08.725Z,6.77
2017-12-01T23:53:36.383Z,6.97
2017-12-01T23:56:04.034Z,6.75
2017-12-01T23:58:31.659Z,7.12
